createdAt,value
2018-01-17T00:00:42.010Z,11.43
2018-01-17T00:03:09.454Z,7.10
2018-01-17T00:05:36.924Z,7.70
2018-01-17T00:08:04.406Z,7.70
2018-01-17T00:10:31.858Z,8.30
2018-01-17T00:12:59.392Z,8.97
2018-01-17T00:15:27.207Z,8.43
2018-01-17T00:17:54.692Z,7.47
2018-01-17T00:20:22.161Z,8.90
2018-01-17T00:22:49.625Z,7.73
2018-01-17T00:25:17.110Z,6.83
2018-01-17T00:27:44.594Z,6.00
2018-01-17T00:30:12.130Z,7.00
2018-01-17T00:32:39.619Z,7.27
2018-01-17T00:35:07.123Z,8.63
2018-01-17T00:37:34.589Z,7.97
2018-01-17T00:40:02.045Z,6.43
2018-01-17T00:42:29.578Z,9.00
2018-01-17T00:44:57.078Z,7.63
2018-01-17T00:47:24.660Z,7.03
2018-01-17T00:49:52.219Z,7.20
2018-01-17T00:52:19.726Z,7.00
2018-01-17T00:54:47.226Z,9.20
2018-01-17T00:57:14.779Z,7.10
2018-01-17T00:59:42.300Z,6.80
2018-01-17T01:02:09.803Z,9.80
2018-01-17T01:04:37.362Z,7.00
2018-01-17T01:07:04.961Z,8.27
2018-01-17T01:09:32.478Z,7.00
2018-01-17T01:12:00.004Z,7.60
2018-01-17T01:14:27.530Z,7.63
2018-01-17T01:16:55.052Z,7.93
2018-01-17T01:19:22.596Z,8.60
2018-01-17T01:21:50.125Z,8.43
2018-01-17T01:24:17.625Z,9.10
2018-01-17T01:26:45.184Z,7.50
2018-01-17T01:29:12.706Z,7.50
2018-01-17T01:31:40.226Z,7.37
2018-01-17T01:34:07.752Z,8.40
2018-01-17T01:36:35.364Z,8.00
2018-01-17T01:39:02.896Z,7.13
2018-01-17T01:41:30.410Z,15.47
2018-01-17T01:43:57.965Z,9.40
2018-01-17T01:46:25.472Z,9.37
2018-01-17T01:49:00.934Z,8.70
2018-01-17T01:51:28.440Z,10.00
2018-01-17T01:53:55.964Z,9.23
2018-01-17T01:56:23.520Z,9.43
2018-01-17T01:58:51.054Z,8.07
2018-01-17T02:01:18.635Z,9.37
2018-01-17T02:03:46.190Z,10.50
2018-01-17T02:06:13.700Z,10.20
2018-01-17T02:08:41.207Z,9.10
2018-01-17T02:11:08.742Z,8.27
2018-01-17T02:13:36.273Z,8.90
2018-01-17T02:16:03.839Z,7.67
2018-01-17T02:18:31.382Z,7.57
2018-01-17T02:20:59.005Z,7.73
2018-01-17T02:23:26.517Z,6.93
2018-01-17T02:25:54.074Z,8.00
2018-01-17T02:28:21.612Z,8.40
2018-01-17T02:30:49.155Z,8.50
2018-01-17T02:33:16.891Z,7.20
2018-01-17T02:35:44.403Z,7.33
2018-01-17T02:38:11.910Z,7.53
2018-01-17T02:40:39.463Z,8.33
2018-01-17T02:43:07.005Z,8.30
2018-01-17T02:45:34.549Z,6.93
2018-01-17T02:48:02.107Z,8.53
2018-01-17T02:50:29.657Z,8.40
2018-01-17T02:52:57.165Z,7.33
2018-01-17T02:55:24.860Z,8.70
2018-01-17T02:57:52.376Z,8.30
2018-01-17T03:00:19.898Z,9.83
2018-01-17T03:02:47.465Z,8.77
2018-01-17T03:05:15.003Z,8.83
2018-01-17T03:07:42.522Z,8.33
2018-01-17T03:10:10.081Z,8.43
2018-01-17T03:12:37.590Z,7.47
2018-01-17T03:15:05.696Z,9.00
2018-01-17T03:17:34.157Z,8.27
2018-01-17T03:20:01.668Z,7.70
2018-01-17T03:22:29.196Z,7.57
2018-01-17T03:24:57.109Z,7.20
2018-01-17T03:27:24.634Z,6.77
2018-01-17T03:29:52.138Z,6.77
2018-01-17T03:32:19.705Z,7.57
2018-01-17T03:34:47.245Z,7.33
2018-01-17T03:37:14.770Z,7.30
2018-01-17T03:39:42.306Z,8.40
2018-01-17T03:42:09.838Z,6.77
2018-01-17T03:44:37.381Z,7.50
2018-01-17T03:47:04.956Z,7.50
2018-01-17T03:49:32.479Z,7.93
2018-01-17T03:52:00.014Z,8.00
2018-01-17T03:54:27.574Z,8.30
2018-01-17T03:56:55.101Z,7.77
2018-01-17T03:59:22.644Z,8.13
2018-01-17T04:01:50.364Z,8.00
2018-01-17T04:04:17.882Z,8.70
2018-01-17T04:06:45.428Z,8.30
2018-01-17T04:09:12.966Z,8.70
2018-01-17T04:11:40.477Z,8.13
2018-01-17T04:14:08.031Z,8.00
2018-01-17T04:16:35.606Z,7.17
2018-01-17T04:19:03.140Z,7.80
2018-01-17T04:21:30.704Z,7.43
2018-01-17T04:23:58.235Z,9.30
2018-01-17T04:26:25.773Z,6.43
2018-01-17T04:28:53.286Z,6.63
2018-01-17T04:31:20.819Z,7.50
2018-01-17T04:33:48.393Z,9.20
2018-01-17T04:36:15.938Z,8.23
2018-01-17T04:38:43.472Z,7.10
2018-01-17T04:41:16.034Z,7.50
2018-01-17T04:43:43.552Z,7.03
2018-01-17T04:46:11.086Z,7.30
2018-01-17T04:48:38.609Z,7.00
2018-01-17T04:51:06.141Z,7.40
2018-01-17T04:53:33.673Z,6.77
2018-01-17T04:56:01.194Z,6.37
2018-01-17T04:58:28.776Z,6.30
2018-01-17T05:00:56.293Z,6.87
2018-01-17T05:03:23.821Z,5.53
2018-01-17T05:05:51.521Z,6.70
2018-01-17T05:08:19.054Z,6.60
2018-01-17T05:10:46.567Z,6.03
2018-01-17T05:13:14.127Z,6.17
2018-01-17T05:15:41.637Z,6.90
2018-01-17T05:18:09.172Z,5.73
2018-01-17T05:20:36.725Z,7.03
2018-01-17T05:23:04.242Z,6.47
2018-01-17T05:25:31.786Z,7.20
2018-01-17T05:27:59.328Z,5.60
2018-01-17T05:30:26.857Z,6.10
2018-01-17T05:32:54.415Z,6.70
2018-01-17T05:35:21.941Z,5.60
2018-01-17T05:37:49.450Z,6.60
2018-01-17T05:40:16.983Z,7.93
2018-01-17T05:42:44.753Z,6.07
2018-01-17T05:45:12.287Z,6.73
2018-01-17T05:47:39.810Z,6.17
2018-01-17T05:50:07.355Z,5.90
2018-01-17T05:52:34.914Z,7.23
2018-01-17T05:55:02.453Z,8.10
2018-01-17T05:57:29.962Z,6.57
2018-01-17T05:59:57.489Z,7.43
2018-01-17T06:02:24.994Z,7.63
2018-01-17T06:04:52.557Z,7.17
2018-01-17T06:07:20.083Z,5.27
2018-01-17T06:09:47.603Z,6.60
2018-01-17T06:12:15.154Z,7.37
2018-01-17T06:14:42.662Z,7.53
2018-01-17T06:17:10.225Z,7.00
2018-01-17T06:19:37.755Z,7.80
2018-01-17T06:22:05.290Z,7.30
2018-01-17T06:24:33.336Z,7.07
2018-01-17T06:27:00.878Z,6.63
2018-01-17T06:29:28.416Z,14.33
2018-01-17T06:31:56.092Z,7.60
2018-01-17T06:34:23.616Z,7.20
2018-01-17T06:36:51.123Z,7.37
2018-01-17T06:39:18.658Z,7.40
2018-01-17T06:41:46.186Z,7.80
2018-01-17T06:44:13.699Z,7.87
2018-01-17T06:46:41.257Z,7.37
2018-01-17T06:49:08.806Z,8.10
2018-01-17T06:51:36.322Z,7.40
2018-01-17T06:54:03.870Z,9.23
2018-01-17T06:56:31.414Z,10.33
2018-01-17T06:58:58.981Z,8.63
2018-01-17T07:01:26.520Z,8.40
2018-01-17T07:03:54.093Z,9.63
2018-01-17T07:06:21.665Z,9.97
2018-01-17T07:08:49.215Z,8.60
2018-01-17T07:11:16.745Z,8.70
2018-01-17T07:13:44.278Z,9.83
2018-01-17T07:16:11.782Z,9.33
2018-01-17T07:18:39.308Z,10.20
2018-01-17T07:21:06.870Z,8.80
2018-01-17T07:23:34.425Z,11.63
2018-01-17T07:26:01.970Z,10.53
2018-01-17T07:28:29.521Z,10.70
2018-01-17T07:30:57.039Z,10.37
2018-01-17T07:33:24.568Z,9.90
2018-01-17T07:35:52.342Z,10.97
2018-01-17T07:38:19.868Z,10.03
2018-01-17T07:40:47.386Z,10.63
2018-01-17T07:43:14.942Z,11.07
2018-01-17T07:45:42.486Z,9.90
2018-01-17T07:48:10.018Z,9.37
2018-01-17T07:50:37.573Z,11.80
2018-01-17T07:53:05.098Z,15.07
2018-01-17T07:55:32.643Z,11.23
2018-01-17T07:58:00.197Z,11.00
2018-01-17T08:00:27.718Z,10.20
2018-01-17T08:02:55.260Z,11.30
2018-01-17T08:05:22.810Z,10.60
2018-01-17T08:07:50.332Z,11.27
2018-01-17T08:10:17.858Z,10.47
2018-01-17T08:12:45.406Z,11.10
2018-01-17T08:15:12.947Z,10.33
2018-01-17T08:17:40.466Z,9.40
2018-01-17T08:20:08.802Z,9.40
2018-01-17T08:22:36.330Z,10.77
2018-01-17T08:25:03.963Z,11.10
2018-01-17T08:27:31.582Z,9.83
2018-01-17T08:29:59.116Z,9.77
2018-01-17T08:32:26.681Z,13.20
2018-01-17T08:34:54.207Z,12.73
2018-01-17T08:37:21.748Z,11.10
2018-01-17T08:39:49.285Z,11.80
2018-01-17T08:42:16.799Z,10.53
2018-01-17T08:44:44.362Z,12.27
2018-01-17T08:47:11.874Z,11.37
2018-01-17T08:49:39.386Z,11.07
2018-01-17T08:52:07.205Z,12.47
2018-01-17T08:54:34.746Z,12.60
2018-01-17T08:57:02.286Z,12.50
2018-01-17T08:59:29.834Z,13.10
2018-01-17T09:01:57.349Z,13.97
2018-01-17T09:04:24.886Z,14.17
2018-01-17T09:06:52.421Z,13.67
2018-01-17T09:09:19.974Z,12.43
2018-01-17T09:11:47.518Z,11.33
2018-01-17T09:14:15.083Z,11.03
2018-01-17T09:16:42.636Z,14.50
2018-01-17T09:19:10.150Z,12.13
2018-01-17T09:21:37.708Z,12.60
2018-01-17T09:24:05.255Z,12.43
2018-01-17T09:26:32.782Z,14.17
2018-01-17T09:29:00.359Z,12.70
2018-01-17T09:31:27.928Z,12.80
2018-01-17T09:33:55.501Z,12.20
2018-01-17T09:36:23.023Z,14.67
2018-01-17T09:38:50.554Z,12.23
2018-01-17T09:41:18.121Z,11.63
2018-01-17T09:43:45.650Z,14.43
2018-01-17T09:46:13.187Z,9.90
2018-01-17T09:48:40.761Z,10.27
2018-01-17T09:51:08.290Z,10.50
2018-01-17T09:53:35.856Z,9.80
2018-01-17T09:56:03.389Z,11.03
2018-01-17T09:58:30.915Z,17.63
2018-01-17T10:00:58.425Z,7.90
2018-01-17T10:03:26.416Z,8.70
2018-01-17T10:05:53.993Z,9.13
2018-01-17T10:08:21.523Z,7.10
2018-01-17T10:10:49.116Z,9.33
2018-01-17T10:13:16.634Z,9.77
2018-01-17T10:15:44.190Z,9.93
2018-01-17T10:18:12.122Z,6.30
2018-01-17T10:20:39.659Z,8.67
2018-01-17T10:23:07.192Z,8.30
2018-01-17T10:25:34.756Z,7.67
2018-01-17T10:28:02.267Z,7.50
2018-01-17T10:30:29.831Z,7.60
2018-01-17T10:32:57.381Z,7.33
2018-01-17T10:35:24.910Z,8.33
2018-01-17T10:37:52.464Z,8.20
2018-01-17T10:40:20.013Z,8.53
2018-01-17T10:42:47.791Z,6.53
2018-01-17T10:45:15.354Z,10.03
2018-01-17T10:47:42.894Z,10.83
2018-01-17T10:50:10.451Z,11.13
2018-01-17T10:52:37.978Z,9.83
2018-01-17T10:55:06.469Z,10.00
2018-01-17T10:57:34.236Z,9.63
2018-01-17T11:00:01.807Z,9.87
2018-01-17T11:02:29.332Z,7.80
2018-01-17T11:04:57.225Z,9.60
2018-01-17T11:07:24.726Z,7.67
2018-01-17T11:09:52.243Z,7.67
2018-01-17T11:12:19.810Z,9.20
2018-01-17T11:14:47.366Z,12.47
2018-01-17T11:17:14.869Z,7.70
2018-01-17T11:19:42.514Z,5.80
2018-01-17T11:22:10.021Z,6.87
2018-01-17T11:24:37.630Z,6.70
2018-01-17T11:27:05.393Z,6.83
2018-01-17T11:29:32.918Z,8.50
2018-01-17T11:32:00.426Z,7.23
2018-01-17T11:34:27.981Z,7.50
2018-01-17T11:36:55.596Z,6.30
2018-01-17T11:39:23.098Z,7.27
2018-01-17T11:41:50.736Z,5.80
2018-01-17T11:44:18.247Z,6.30
2018-01-17T11:46:45.850Z,6.27
2018-01-17T11:49:13.413Z,6.00
2018-01-17T11:51:40.954Z,7.00
2018-01-17T11:54:08.541Z,6.50
2018-01-17T11:56:36.100Z,6.63
2018-01-17T11:59:03.648Z,6.43
2018-01-17T12:01:31.198Z,7.20
2018-01-17T12:03:58.749Z,6.43
2018-01-17T12:06:26.287Z,5.60
2018-01-17T12:08:53.792Z,6.77
2018-01-17T12:11:21.322Z,7.57
2018-01-17T12:13:48.839Z,9.00
2018-01-17T12:16:16.444Z,6.87
2018-01-17T12:18:43.964Z,6.10
2018-01-17T12:21:11.513Z,6.63
2018-01-17T12:23:39.032Z,6.00
2018-01-17T12:26:06.551Z,6.57
2018-01-17T12:28:34.084Z,8.13
2018-01-17T12:31:01.591Z,6.50
2018-01-17T12:33:29.094Z,7.87
2018-01-17T12:35:56.689Z,7.20
2018-01-17T12:38:24.307Z,9.40
2018-01-17T12:40:51.872Z,7.87
2018-01-17T12:43:19.493Z,6.13
2018-01-17T12:45:47.027Z,7.33
2018-01-17T12:48:14.545Z,9.40
2018-01-17T12:50:42.199Z,9.83
2018-01-17T12:53:09.733Z,7.17
2018-01-17T12:55:37.263Z,7.87
2018-01-17T12:58:04.806Z,8.17
2018-01-17T13:00:32.322Z,7.10
2018-01-17T13:02:59.852Z,7.90
2018-01-17T13:05:27.393Z,8.60
2018-01-17T13:07:54.895Z,9.23
2018-01-17T13:10:22.411Z,9.20
2018-01-17T13:12:50.117Z,8.20
2018-01-17T13:15:17.686Z,8.20
2018-01-17T13:17:45.469Z,10.00
2018-01-17T13:20:13.112Z,10.80
2018-01-17T13:22:40.617Z,9.10
2018-01-17T13:25:08.113Z,9.33
2018-01-17T13:27:35.667Z,7.70
2018-01-17T13:30:03.193Z,8.67
2018-01-17T13:32:30.798Z,10.80
2018-01-17T13:34:58.769Z,9.80
2018-01-17T13:37:26.281Z,9.27
2018-01-17T13:39:54.283Z,10.43
2018-01-17T13:42:22.190Z,11.20
2018-01-17T13:44:50.065Z,10.73
2018-01-17T13:47:17.612Z,9.60
2018-01-17T13:49:45.257Z,10.53
2018-01-17T13:52:12.921Z,9.63
2018-01-17T13:54:40.467Z,11.80
2018-01-17T13:57:07.996Z,10.47
2018-01-17T13:59:35.569Z,11.53
2018-01-17T14:02:03.091Z,10.87
2018-01-17T14:04:30.616Z,9.93
2018-01-17T14:06:58.158Z,10.03
2018-01-17T14:09:25.716Z,9.57
2018-01-17T14:11:53.254Z,10.50
2018-01-17T14:14:20.801Z,11.00
2018-01-17T14:16:48.390Z,9.73
2018-01-17T14:19:15.911Z,8.23
2018-01-17T14:21:43.512Z,8.03
2018-01-17T14:24:11.009Z,7.83
2018-01-17T14:26:38.549Z,8.90
2018-01-17T14:29:06.083Z,10.77
2018-01-17T14:31:33.990Z,7.83
2018-01-17T14:34:01.530Z,7.10
2018-01-17T14:36:29.074Z,9.30
2018-01-17T14:38:56.580Z,9.07
2018-01-17T14:41:24.199Z,7.70
2018-01-17T14:43:51.717Z,8.43
2018-01-17T14:46:19.212Z,7.53
2018-01-17T14:48:47.002Z,7.67
2018-01-17T14:51:14.634Z,6.27
2018-01-17T14:53:42.135Z,4.90
2018-01-17T14:56:09.691Z,4.67
2018-01-17T14:58:37.207Z,4.83
2018-01-17T15:01:04.766Z,4.57
2018-01-17T15:03:32.296Z,4.90
2018-01-17T15:05:59.797Z,6.80
2018-01-17T15:08:27.298Z,8.10
2018-01-17T15:10:54.904Z,5.87
2018-01-17T15:13:22.409Z,8.00
2018-01-17T15:15:49.910Z,7.63
2018-01-17T15:18:17.413Z,4.60
2018-01-17T15:20:44.945Z,6.87
2018-01-17T15:23:12.631Z,4.50
2018-01-17T15:25:40.157Z,4.53
2018-01-17T15:28:07.648Z,3.10
2018-01-17T15:30:35.382Z,3.33
2018-01-17T15:33:02.918Z,8.07
2018-01-17T15:35:30.421Z,5.53
2018-01-17T15:37:57.945Z,4.63
2018-01-17T15:40:25.575Z,3.80
2018-01-17T15:42:53.101Z,3.67
2018-01-17T15:45:20.857Z,5.33
2018-01-17T15:47:48.425Z,6.60
2018-01-17T15:50:16.368Z,7.20
2018-01-17T15:52:44.691Z,5.77
2018-01-17T15:55:12.269Z,9.13
2018-01-17T15:57:39.866Z,12.93
2018-01-17T16:00:07.396Z,8.10
2018-01-17T16:02:35.000Z,7.67
2018-01-17T16:05:02.534Z,6.50
2018-01-17T16:07:30.132Z,6.90
2018-01-17T16:09:57.697Z,5.23
2018-01-17T16:12:25.221Z,7.37
2018-01-17T16:14:52.839Z,8.27
2018-01-17T16:17:20.854Z,10.10
2018-01-17T16:19:48.433Z,10.20
2018-01-17T16:22:15.984Z,5.67
2018-01-17T16:24:43.500Z,6.40
2018-01-17T16:27:11.013Z,8.57
2018-01-17T16:29:38.565Z,7.37
2018-01-17T16:32:06.962Z,8.10
2018-01-17T16:34:34.503Z,10.63
2018-01-17T17:20:43.253Z,5.40
2018-01-17T17:23:10.770Z,6.73
2018-01-17T17:25:38.281Z,5.20
2018-01-17T17:28:05.839Z,5.80
2018-01-17T17:30:33.370Z,4.87
2018-01-17T17:33:00.890Z,6.37
2018-01-17T17:35:28.445Z,8.90
2018-01-17T17:37:55.953Z,7.00
2018-01-17T17:40:23.466Z,5.40
2018-01-17T17:42:51.014Z,5.73
2018-01-17T17:45:18.819Z,5.40
2018-01-17T17:47:46.539Z,5.30
2018-01-17T17:50:14.098Z,6.77
2018-01-17T17:52:41.647Z,5.93
2018-01-17T17:55:09.202Z,8.33
2018-01-17T17:57:36.732Z,5.80
2018-01-17T18:00:04.281Z,5.07
2018-01-17T18:02:31.837Z,6.00
2018-01-17T18:04:59.385Z,5.77
2018-01-17T18:07:26.936Z,6.13
2018-01-17T18:09:54.497Z,6.03
2018-01-17T18:12:22.029Z,5.33
2018-01-17T18:14:49.535Z,4.83
2018-01-17T18:17:17.226Z,5.37
2018-01-17T18:19:44.758Z,4.90
2018-01-17T18:22:12.256Z,4.80
2018-01-17T18:24:39.803Z,6.53
2018-01-17T18:27:07.320Z,5.10
2018-01-17T18:29:34.864Z,6.10
2018-01-17T18:32:02.369Z,9.73
2018-01-17T18:34:29.890Z,5.73
2018-01-17T18:36:57.867Z,5.60
2018-01-17T18:39:25.394Z,6.63
2018-01-17T18:41:53.457Z,6.73
2018-01-17T18:44:21.017Z,6.70
2018-01-17T18:46:48.526Z,6.87
2018-01-17T18:49:16.033Z,6.13
2018-01-17T18:51:43.810Z,7.70
2018-01-17T18:54:11.375Z,6.90
2018-01-17T18:56:38.930Z,6.80
2018-01-17T18:59:06.697Z,9.63
2018-01-17T19:01:34.219Z,7.87
2018-01-17T19:04:01.721Z,8.83
2018-01-17T19:06:29.378Z,9.97
2018-01-17T19:08:56.891Z,6.90
2018-01-17T19:11:24.386Z,8.47
2018-01-17T19:13:52.009Z,9.60
2018-01-17T19:16:19.534Z,8.00
2018-01-17T19:18:47.069Z,10.60
2018-01-17T19:21:14.584Z,9.30
2018-01-17T19:23:42.124Z,11.40
2018-01-17T19:26:09.651Z,8.30
2018-01-17T19:28:38.030Z,11.70
2018-01-17T19:31:05.533Z,10.90
2018-01-17T19:33:33.247Z,11.73
2018-01-17T19:36:01.629Z,13.27
2018-01-17T19:38:29.136Z,11.30
2018-01-17T19:40:56.700Z,13.83
2018-01-17T19:43:24.406Z,12.37
2018-01-17T19:45:51.912Z,11.53
2018-01-17T19:48:19.461Z,13.07
2018-01-17T19:50:47.200Z,15.00
2018-01-17T19:53:15.537Z,9.83
2018-01-17T19:55:43.035Z,8.00
2018-01-17T19:58:10.580Z,8.67
2018-01-17T20:00:38.117Z,10.90
2018-01-17T20:03:05.700Z,7.83
2018-01-17T20:05:33.245Z,8.50
2018-01-17T20:08:00.779Z,10.33
2018-01-17T20:10:28.398Z,11.00
2018-01-17T20:12:56.143Z,11.90
2018-01-17T20:15:23.652Z,12.80
2018-01-17T20:17:51.172Z,12.80
2018-01-17T20:20:18.741Z,12.10
2018-01-17T20:22:51.994Z,9.17
2018-01-17T20:25:19.511Z,20.63
2018-01-17T20:27:47.013Z,15.70
2018-01-17T20:30:14.611Z,11.37
2018-01-17T20:32:43.052Z,11.77
2018-01-17T20:35:10.564Z,13.90
2018-01-17T20:37:38.066Z,13.97
2018-01-17T20:40:05.620Z,14.83
2018-01-17T20:42:33.150Z,17.30
2018-01-17T20:45:00.662Z,14.67
2018-01-17T20:47:28.196Z,12.93
2018-01-17T20:49:55.824Z,13.20
2018-01-17T20:52:23.373Z,14.90
2018-01-17T20:54:50.909Z,7.10
2018-01-17T20:57:18.409Z,19.93
2018-01-17T20:59:46.022Z,12.00
2018-01-17T21:02:13.543Z,9.63
2018-01-17T21:04:41.071Z,10.47
2018-01-17T21:07:08.612Z,12.20
2018-01-17T21:09:36.129Z,9.13
2018-01-17T21:12:03.663Z,11.10
2018-01-17T21:14:31.250Z,11.00
2018-01-17T21:16:58.778Z,10.07
2018-01-17T21:19:26.321Z,12.40
2018-01-17T21:21:53.878Z,11.83
2018-01-17T21:24:21.392Z,15.10
2018-01-17T21:26:48.924Z,11.63
2018-01-17T21:29:16.485Z,12.57
2018-01-17T21:31:44.023Z,15.73
2018-01-17T21:34:11.528Z,10.70
2018-01-17T21:36:39.703Z,8.63
2018-01-17T21:39:07.204Z,9.50
2018-01-17T21:41:34.731Z,9.67
2018-01-17T21:44:08.002Z,9.60
2018-01-17T21:46:36.467Z,10.77
2018-01-17T21:49:04.091Z,8.17
2018-01-17T21:51:31.632Z,7.13
2018-01-17T21:53:59.156Z,7.60
2018-01-17T21:56:26.684Z,10.47
2018-01-17T21:58:54.220Z,16.17
2018-01-17T22:01:21.795Z,9.97
2018-01-17T22:03:49.385Z,11.27
2018-01-17T22:06:17.077Z,10.07
2018-01-17T22:08:44.599Z,16.23
2018-01-17T22:11:12.227Z,9.40
2018-01-17T22:13:39.766Z,13.07
2018-01-17T22:16:07.290Z,10.90
2018-01-17T22:18:34.846Z,13.30
2018-01-17T22:21:02.367Z,12.20
2018-01-17T22:23:29.899Z,8.83
2018-01-17T22:25:57.517Z,13.13
2018-01-17T22:28:25.145Z,8.20
2018-01-17T22:30:52.717Z,13.60
2018-01-17T22:33:20.273Z,11.83
2018-01-17T22:35:47.802Z,11.10
2018-01-17T22:38:15.318Z,9.73
2018-01-17T22:40:42.880Z,16.60
2018-01-17T22:43:10.594Z,15.30
2018-01-17T22:45:38.120Z,17.90
2018-01-17T22:48:05.800Z,9.80
2018-01-17T22:50:33.316Z,8.43
2018-01-17T22:53:00.821Z,11.70
2018-01-17T22:55:28.363Z,13.97
2018-01-17T22:57:55.868Z,7.70
2018-01-17T23:00:23.398Z,6.53
2018-01-17T23:02:50.897Z,6.40
2018-01-17T23:05:18.395Z,6.50
2018-01-17T23:07:46.097Z,6.40
2018-01-17T23:10:13.607Z,8.80
2018-01-17T23:12:41.198Z,9.10
2018-01-17T23:15:08.977Z,6.53
2018-01-17T23:17:36.506Z,6.43
2018-01-17T23:20:04.014Z,7.13
2018-01-17T23:22:31.526Z,7.50
2018-01-17T23:24:59.031Z,8.07
2018-01-17T23:27:26.641Z,6.43
2018-01-17T23:29:54.230Z,3.23
2018-01-17T23:32:21.890Z,3.23
2018-01-17T23:34:49.412Z,3.60
2018-01-17T23:37:16.933Z,3.50
2018-01-17T23:39:44.432Z,3.07
2018-01-17T23:42:11.998Z,3.20
2018-01-17T23:44:39.589Z,2.20
2018-01-17T23:47:07.160Z,2.73
2018-01-17T23:49:34.706Z,3.20
2018-01-17T23:52:02.245Z,4.67
2018-01-17T23:54:29.753Z,4.07
2018-01-17T23:56:57.687Z,3.70
2018-01-17T23:59:25.180Z,4.73
